map of OSD home
OSD - Airport
Location
City:  Östersund, Jämtlands län, Sweden
Name:Frösön AB
ICAO:ESNZ
IATA:OSD

Details
Type:Airport (Aerodrome, Airfield)
Use:Public/Civil, Military
Latitude:63°11'39"N (63.194125)
Longitude:14°30'07"E (14.502008)
Datum:WGS 1984
Elevation:1233 ft (376 m)
Variation:5.17°E (WMM2015 magnetic declination)
0.18° annual change
Runways:2
Longest:8202 × 148 ft (2500 × 45 m), paved

Time
Time Zone:UTC+1 (DST+2)
Local Time:

Weather
METAR:ESNZ 140150Z AUTO 11005KT 9999 SCT006/// OVC020/// M06/M07 Q0981

Related Locations
Nearby:
Farthest:NZTB: 11356 mi / 18275 km
Terra Nova Bay [Mario Zucchelli Station], AQ

Find:

   beyond  
but within

Other Information
Maps:
NOTAMs:
Links:
Sources:

  
flag of Sweden   

Sectional Chart

Flight Planning
at skyvector.com

Satellite Image

Google Maps Satellite view

 

Copyright © 2004-2017 Karl L. Swartz. All rights reserved.
The Great Circle Mapper name and logo are trademarks of the Great Circle Mapper.
All other trademarks mentioned herein belong to their respective owners.
Please see credits for attibutions and further copyright information.

  Follow gcmap on Facebook Follow gcmap on Twitter Follow gcmap on Google+ GCmap on LinkedIn

hCard Microformat

Geo Microformat